Time;durP1;ratioP1;P1;durP2;ratioP2;P2;SDS_P1;SDS_P2;PMS_P1;PMS_P2;Temp;Humidity;BMP_temperature;BMP_pressure;BME280_temperature;BME280_humidity;BME280_pressure;Samples;Min_cycle;Max_cycle;Signal;HPM_P1;HPM_P2
2021/07/15 00:01:09;;;;;;;6.20;2.80;;;;;;;21.11;73.13;100251.14;93213;1203;76137;-67
2021/07/15 00:03:23;;;;;;;5.50;2.60;;;;;;;21.02;73.26;100240.84;93219;1205;81371;-67
2021/07/15 00:05:32;;;;;;;5.70;2.40;;;;;;;20.86;73.77;100252.78;93184;1211;66160;-64
2021/07/15 00:07:40;;;;;;;4.90;2.50;;;;;;;20.79;73.41;100260.41;93232;1206;68618;-64
2021/07/15 00:09:49;;;;;;;3.70;2.30;;;;;;;20.80;73.65;100271.13;93158;1206;86920;-67
2021/07/15 00:11:57;;;;;;;8.10;2.40;;;;;;;20.84;73.50;100271.44;93207;1205;74561;-66
2021/07/15 00:14:06;;;;;;;10.30;2.70;;;;;;;20.85;73.60;100281.34;93178;1204;81454;-65
2021/07/15 00:16:16;;;;;;;5.30;2.60;;;;;;;20.92;73.53;100279.20;93183;1206;65669;-65
2021/07/15 00:18:30;;;;;;;9.10;3.50;;;;;;;20.91;73.46;100269.30;93254;1206;68113;-66
2021/07/15 00:20:42;;;;;;;5.80;2.20;;;;;;;20.91;73.49;100266.55;93187;1205;86605;-63
2021/07/15 00:22:50;;;;;;;5.70;2.40;;;;;;;20.86;73.59;100255.53;93212;1206;75080;-63
2021/07/15 00:24:59;;;;;;;6.80;2.20;;;;;;;20.84;73.53;100266.78;93180;1213;81079;-66
2021/07/15 00:27:10;;;;;;;5.70;2.40;;;;;;;20.78;73.58;100262.33;93188;1214;67436;-65
2021/07/15 00:29:17;;;;;;;5.00;2.40;;;;;;;20.74;73.58;100249.38;93207;1206;69268;-64
2021/07/15 00:31:25;;;;;;;5.80;2.60;;;;;;;20.70;73.84;100226.27;93037;1208;85844;-63
2021/07/15 00:33:33;;;;;;;4.50;2.40;;;;;;;20.65;73.78;100217.98;93240;1205;73495;-63
2021/07/15 00:35:41;;;;;;;4.90;2.50;;;;;;;20.61;73.66;100209.44;93188;1213;80859;-63
2021/07/15 00:37:49;;;;;;;7.10;2.90;;;;;;;20.61;73.94;100206.69;93200;1206;67188;-63
2021/07/15 00:39:57;;;;;;;4.60;2.30;;;;;;;20.66;73.86;100198.50;93177;1210;69159;-66
2021/07/15 00:42:05;;;;;;;7.80;2.90;;;;;;;20.63;73.85;100187.23;93210;1205;87064;-65
2021/07/15 00:44:13;;;;;;;7.00;2.90;;;;;;;20.62;73.81;100188.31;93242;1213;74932;-66
2021/07/15 00:46:20;;;;;;;6.60;2.90;;;;;;;20.56;74.19;100176.45;93210;1206;80758;-66
2021/07/15 00:48:29;;;;;;;5.70;2.50;;;;;;;20.55;74.10;100161.06;93182;1205;67885;-64
2021/07/15 00:50:41;;;;;;;8.00;3.20;;;;;;;20.51;74.05;100148.96;93160;1206;68226;-64
2021/07/15 00:52:50;;;;;;;5.80;1.80;;;;;;;20.47;74.48;100167.86;93222;1206;88138;-63
2021/07/15 00:54:58;;;;;;;6.60;2.00;;;;;;;20.51;74.27;100165.43;93163;1205;74648;-66
2021/07/15 00:57:07;;;;;;;5.30;2.40;;;;;;;20.46;74.06;100155.21;93221;1204;81047;-66
2021/07/15 00:59:14;;;;;;;4.70;2.30;;;;;;;20.43;74.31;100153.02;93172;1206;68356;-66
2021/07/15 01:01:22;;;;;;;5.30;2.50;;;;;;;20.43;74.13;100138.45;93221;1206;67806;-66
2021/07/15 01:03:30;;;;;;;5.80;2.40;;;;;;;20.46;74.38;100132.45;93195;1207;86646;-65
2021/07/15 01:05:41;;;;;;;6.10;2.60;;;;;;;20.47;74.32;100125.86;93186;1207;74474;-66
2021/07/15 01:07:49;;;;;;;5.30;2.50;;;;;;;20.47;74.31;100128.60;93233;1206;82030;-67
2021/07/15 01:09:57;;;;;;;8.00;2.30;;;;;;;20.43;74.25;100122.83;93189;1206;67573;-64
2021/07/15 01:12:28;;;;;;;5.20;2.20;;;;;;;20.50;74.12;100122.59;93171;1206;68687;-63
2021/07/15 01:14:52;;;;;;;7.20;2.40;;;;;;;20.50;74.30;100117.11;93202;1205;87020;-66
2021/07/15 01:17:08;;;;;;;6.30;2.00;;;;;;;20.53;74.45;100117.42;93173;1208;74703;-65
2021/07/15 01:20:11;;;;;;;7.70;2.60;;;;;;;20.51;74.25;100111.38;93206;1206;81047;-65
2021/07/15 01:22:25;;;;;;;4.60;2.30;;;;;;;20.48;74.20;100092.68;93019;1205;67621;-66
2021/07/15 01:25:34;;;;;;;3.10;2.00;;;;;;;20.48;74.12;100103.66;93202;1213;69450;-67
2021/07/15 01:27:59;;;;;;;4.40;2.20;;;;;;;20.44;74.19;100086.05;93174;1205;86823;-67
2021/07/15 01:30:12;;;;;;;4.10;1.90;;;;;;;20.44;74.46;100082.47;93233;1206;74451;-64
2021/07/15 01:32:22;;;;;;;5.20;2.30;;;;;;;20.42;74.46;100088.23;93182;1210;81447;-64
2021/07/15 01:34:33;;;;;;;4.70;2.10;;;;;;;20.41;74.33;100089.31;93146;1208;66540;-63
2021/07/15 01:36:43;;;;;;;5.10;2.10;;;;;;;20.40;74.29;100087.67;93186;1205;68231;-63
2021/07/15 01:38:55;;;;;;;5.10;2.40;;;;;;;20.42;74.32;100090.98;93181;1210;87381;-64
2021/07/15 01:41:08;;;;;;;5.20;2.30;;;;;;;20.39;74.38;100086.01;93195;1206;75454;-65
2021/07/15 01:43:27;;;;;;;5.80;1.90;;;;;;;20.42;74.44;100080.00;93204;1213;81312;-63
2021/07/15 01:45:35;;;;;;;5.30;2.10;;;;;;;20.44;74.40;100090.70;93093;1203;67065;-66
2021/07/15 01:47:44;;;;;;;6.70;2.20;;;;;;;20.45;74.51;100095.95;93201;1213;68354;-65
2021/07/15 01:49:56;;;;;;;5.50;2.10;;;;;;;20.46;74.43;100086.61;93216;1206;86716;-67
2021/07/15 01:52:08;;;;;;;5.40;2.20;;;;;;;20.47;74.43;100091.02;93155;1206;76059;-66
2021/07/15 01:54:21;;;;;;;5.90;2.00;;;;;;;20.47;74.43;100080.04;93226;1206;81397;-66
2021/07/15 01:56:30;;;;;;;5.40;2.00;;;;;;;20.51;74.23;100085.84;93200;1205;67070;-67
2021/07/15 01:58:43;;;;;;;4.00;2.20;;;;;;;20.52;74.23;100087.48;93202;1205;70126;-64
2021/07/15 02:00:51;;;;;;;4.80;2.00;;;;;;;20.50;74.31;100079.52;93210;1206;87532;-64
2021/07/15 02:03:01;;;;;;;4.50;2.10;;;;;;;20.54;74.13;100091.64;93207;1206;75586;-64
2021/07/15 02:05:13;;;;;;;5.10;2.00;;;;;;;20.56;74.30;100108.66;93205;1206;80781;-65
2021/07/15 02:07:25;;;;;;;6.70;3.40;;;;;;;20.57;74.14;100132.27;93217;1204;67258;-64
2021/07/15 02:09:34;;;;;;;11.00;2.50;;;;;;;20.60;74.29;100137.23;93216;1205;68256;-67
2021/07/15 02:11:49;;;;;;;5.40;2.50;;;;;;;20.60;74.10;100134.48;93183;1206;87854;-67
2021/07/15 02:13:57;;;;;;;6.80;2.10;;;;;;;20.66;73.97;100131.81;93209;1205;75296;-64
2021/07/15 02:16:10;;;;;;;8.50;2.70;;;;;;;20.69;73.92;100114.79;93160;1206;81639;-64
2021/07/15 02:18:23;;;;;;;5.50;2.10;;;;;;;20.75;73.96;100113.75;93211;1211;66267;-59
2021/07/15 02:20:32;;;;;;;6.40;2.40;;;;;;;20.77;73.75;100130.77;93210;1210;69641;-59
2021/07/15 02:22:40;;;;;;;9.30;3.50;;;;;;;20.77;73.92;100196.67;93196;1211;86250;-59
2021/07/15 02:24:50;;;;;;;7.90;3.80;;;;;;;20.77;74.43;100369.65;93182;1206;74798;-59
2021/07/15 02:26:59;;;;;;;6.60;2.80;;;;;;;20.75;74.45;100363.59;93206;1206;81085;-59
2021/07/15 02:29:07;;;;;;;7.70;2.60;;;;;;;20.76;74.42;100390.81;93213;1206;67396;-59
2021/07/15 02:31:20;;;;;;;5.90;2.50;;;;;;;20.82;74.45;100383.47;93213;1205;69350;-58
2021/07/15 02:33:32;;;;;;;10.50;2.50;;;;;;;20.84;74.37;100430.71;93214;1205;86541;-60
2021/07/15 02:35:46;;;;;;;7.10;3.00;;;;;;;20.88;74.17;100409.88;93245;1213;75358;-65
2021/07/15 02:37:58;;;;;;;7.60;2.60;;;;;;;20.96;73.92;100423.15;93200;1206;80462;-64
2021/07/15 02:40:11;;;;;;;13.00;3.20;;;;;;;21.04;73.59;100466.68;93252;1206;67229;-65
2021/07/15 02:42:18;;;;;;;9.30;3.40;;;;;;;21.06;73.85;100492.80;93212;1205;70111;-61
2021/07/15 02:44:27;;;;;;;8.40;3.80;;;;;;;20.97;74.74;100442.14;93174;1208;90970;-59
2021/07/15 02:46:37;;;;;;;10.70;3.30;;;;;;;20.78;75.08;100407.02;93144;1214;74622;-60
2021/07/15 02:48:45;;;;;;;8.90;3.30;;;;;;;20.64;75.74;100409.31;93056;1208;81559;-58
2021/07/15 02:50:56;;;;;;;10.50;3.40;;;;;;;20.54;75.67;100414.68;93196;1206;68372;-55
2021/07/15 02:53:04;;;;;;;11.90;3.60;;;;;;;20.48;75.72;100400.06;93186;1211;68122;-56
2021/07/15 02:55:14;;;;;;;9.70;4.00;;;;;;;20.45;76.13;100356.65;93200;1206;87655;-59
2021/07/15 02:57:30;;;;;;;14.30;3.60;;;;;;;20.38;76.12;100283.84;93223;1206;75053;-60
2021/07/15 02:59:47;;;;;;;9.80;3.20;;;;;;;20.32;76.47;100224.50;93211;1210;81583;-56
2021/07/15 03:02:11;;;;;;;9.80;3.20;;;;;;;20.11;76.79;100200.64;93157;1208;67884;-56
2021/07/15 03:04:30;;;;;;;10.70;3.30;;;;;;;20.04;77.11;100187.11;93189;1205;68716;-59
2021/07/15 03:06:41;;;;;;;9.80;3.40;;;;;;;20.01;77.32;100209.55;93202;1213;86528;-59
2021/07/15 03:08:56;;;;;;;14.30;3.20;;;;;;;20.02;77.10;100219.45;93166;1209;75036;-58
2021/07/15 03:11:08;;;;;;;10.10;3.90;;;;;;;20.14;77.28;100230.27;93201;1205;82560;-59
2021/07/15 03:13:18;;;;;;;8.70;3.90;;;;;;;20.15;77.32;100230.03;93136;1210;65166;-59
2021/07/15 03:15:26;;;;;;;11.60;3.50;;;;;;;20.17;77.17;100233.34;93113;1209;68562;-62
2021/07/15 03:17:38;;;;;;;14.10;3.80;;;;;;;20.19;77.46;100225.67;93195;1206;86026;-61
2021/07/15 03:19:50;;;;;;;11.00;4.00;;;;;;;20.17;77.15;100238.83;93131;1208;75441;-59
2021/07/15 03:22:02;;;;;;;11.20;4.30;;;;;;;20.19;77.26;100246.81;93214;1206;81031;-59
2021/07/15 03:24:13;;;;;;;17.30;5.40;;;;;;;20.28;77.47;100242.55;93144;1210;65277;-62
2021/07/15 03:26:21;;;;;;;12.70;4.30;;;;;;;20.36;77.38;100240.18;93171;1213;68730;-63
2021/07/15 03:28:32;;;;;;;10.70;4.10;;;;;;;20.38;77.42;100229.77;93194;1206;87579;-60
2021/07/15 03:30:42;;;;;;;12.20;4.10;;;;;;;20.39;77.62;100231.44;93179;1213;76552;-59
2021/07/15 03:32:51;;;;;;;10.20;3.90;;;;;;;20.43;77.56;100224.36;93220;1204;82554;-60
2021/07/15 03:34:59;;;;;;;10.70;3.60;;;;;;;20.52;77.50;100228.28;93205;1206;66348;-62
2021/07/15 03:37:09;;;;;;;9.70;3.40;;;;;;;20.58;77.56;100232.74;93207;1206;69591;-62
2021/07/15 03:39:18;;;;;;;12.70;3.50;;;;;;;20.56;77.58;100245.07;93178;1210;86305;-59
2021/07/15 03:41:26;;;;;;;11.90;3.50;;;;;;;20.50;77.76;100255.16;93206;1206;74386;-59
2021/07/15 03:43:35;;;;;;;8.50;4.50;;;;;;;20.52;77.64;100263.96;93193;1206;81839;-64
2021/07/15 03:45:49;;;;;;;9.70;3.60;;;;;;;20.54;78.00;100259.06;93198;1205;65626;-64
2021/07/15 03:47:59;;;;;;;10.60;4.30;;;;;;;20.64;77.94;100255.58;93193;1213;68659;-63
2021/07/15 03:50:09;;;;;;;10.40;3.90;;;;;;;20.80;77.81;100251.91;93174;1205;87063;-64
2021/07/15 03:52:20;;;;;;;8.80;3.20;;;;;;;20.91;77.80;100266.55;93233;1204;75139;-64
2021/07/15 03:54:28;;;;;;;9.20;4.30;;;;;;;20.99;77.90;100271.58;93178;1207;83113;-63
2021/07/15 03:56:38;;;;;;;8.70;3.80;;;;;;;20.96;77.89;100274.84;93152;1209;66954;-64
2021/07/15 03:58:48;;;;;;;8.20;3.60;;;;;;;20.91;77.94;100274.80;93224;1213;69495;-64
2021/07/15 04:01:04;;;;;;;9.70;3.70;;;;;;;20.89;77.77;100288.80;93156;1209;87121;-64
2021/07/15 04:03:16;;;;;;;9.80;4.10;;;;;;;20.84;77.92;100293.41;93211;1203;76496;-64
2021/07/15 04:05:30;;;;;;;11.20;3.80;;;;;;;20.84;77.95;100290.66;93128;1205;82579;-64
2021/07/15 04:07:39;;;;;;;9.70;3.50;;;;;;;20.83;78.12;100309.05;93189;1206;68027;-62
2021/07/15 04:09:52;;;;;;;10.70;3.00;;;;;;;20.82;78.17;100317.56;93165;1206;67718;-59
2021/07/15 04:12:01;;;;;;;9.10;2.90;;;;;;;20.79;78.29;100334.55;93153;1209;85678;-59
2021/07/15 04:14:18;;;;;;;8.20;3.30;;;;;;;20.79;78.65;100345.53;93233;1206;74473;-59
2021/07/15 04:16:48;;;;;;;9.00;3.70;;;;;;;20.78;78.39;100354.84;93191;1210;83134;-59
2021/07/15 04:19:00;;;;;;;9.20;3.70;;;;;;;20.69;78.53;100365.45;93158;1206;67119;-59
2021/07/15 04:21:10;;;;;;;7.90;3.40;;;;;;;20.65;78.65;100388.19;93205;1206;68260;-59
2021/07/15 04:23:20;;;;;;;10.30;3.60;;;;;;;20.59;78.56;100407.34;93205;1210;86819;-59
2021/07/15 04:25:32;;;;;;;10.00;4.10;;;;;;;20.58;78.81;100397.44;93191;1205;74211;-63
2021/07/15 04:27:42;;;;;;;10.60;4.20;;;;;;;20.49;78.84;100384.42;93201;1205;81108;-60
2021/07/15 04:29:50;;;;;;;10.50;3.90;;;;;;;20.48;78.88;100382.75;93147;1206;67149;-59
2021/07/15 04:32:22;;;;;;;11.50;4.20;;;;;;;20.44;79.06;100365.95;93202;1206;69440;-59
2021/07/15 04:34:35;;;;;;;10.90;3.80;;;;;;;20.51;78.94;100358.38;93180;1204;86804;-59
2021/07/15 04:36:45;;;;;;;13.20;4.60;;;;;;;20.53;78.89;100347.14;93222;1205;75174;-59
2021/07/15 04:38:56;;;;;;;12.10;4.80;;;;;;;20.53;79.15;100311.45;93180;1210;80584;-60
2021/07/15 04:41:04;;;;;;;12.20;4.50;;;;;;;20.57;79.02;100274.98;93187;1214;65537;-60
2021/07/15 04:43:14;;;;;;;14.00;4.60;;;;;;;20.48;79.01;100246.37;93190;1205;70182;-60
2021/07/15 04:45:27;;;;;;;9.80;4.00;;;;;;;20.43;79.22;100209.80;93148;1205;86499;-58
2021/07/15 04:47:37;;;;;;;14.20;4.60;;;;;;;20.36;79.67;100198.19;93235;1206;74969;-58
2021/07/15 04:49:46;;;;;;;13.80;5.10;;;;;;;20.40;79.63;100183.71;93173;1206;81279;-63
2021/07/15 04:51:55;;;;;;;12.70;4.70;;;;;;;20.47;79.78;100161.53;93224;1206;65852;-62
2021/07/15 04:54:06;;;;;;;16.10;6.00;;;;;;;20.58;79.71;100149.56;93183;1205;67862;-63
2021/07/15 04:56:17;;;;;;;17.10;6.30;;;;;;;20.72;79.80;100150.80;93231;1205;87392;-62
2021/07/15 04:58:28;;;;;;;14.60;6.20;;;;;;;20.90;79.81;100144.92;93193;1206;75128;-63
2021/07/15 05:00:37;;;;;;;14.10;4.90;;;;;;;21.07;79.92;100150.27;93155;1206;82450;-59
2021/07/15 05:02:49;;;;;;;10.90;5.10;;;;;;;21.41;79.70;100154.34;93237;1207;67000;-59
2021/07/15 05:05:01;;;;;;;12.10;5.70;;;;;;;21.86;79.73;100152.91;93045;1208;68401;-59
2021/07/15 05:07:09;;;;;;;13.20;6.70;;;;;;;22.48;79.55;100159.16;93209;1211;86916;-59
2021/07/15 05:09:17;;;;;;;10.90;5.80;;;;;;;23.00;79.20;100161.70;93262;1206;76267;-63
2021/07/15 05:11:24;;;;;;;13.80;5.50;;;;;;;23.39;78.92;100167.47;93206;1205;82396;-63
2021/07/15 05:13:32;;;;;;;15.30;5.70;;;;;;;23.88;77.81;100171.17;93176;1213;66969;-62
2021/07/15 05:15:43;;;;;;;11.50;4.70;;;;;;;24.18;76.94;100156.42;93205;1210;68813;-62
2021/07/15 05:17:50;;;;;;;11.70;4.90;;;;;;;24.24;76.20;100143.42;93199;1212;87196;-63
2021/07/15 05:20:01;;;;;;;10.00;4.50;;;;;;;24.22;76.07;100148.41;93190;1211;73673;-58
2021/07/15 05:22:09;;;;;;;8.40;4.30;;;;;;;24.10;75.06;100148.75;93180;1206;81765;-59
2021/07/15 05:24:17;;;;;;;9.40;4.50;;;;;;;24.66;75.79;100143.70;93182;1210;66964;-59
2021/07/15 05:26:27;;;;;;;13.50;4.70;;;;;;;25.00;75.00;100133.47;93213;1205;70248;-60
2021/07/15 05:28:35;;;;;;;10.50;4.30;;;;;;;25.41;74.30;100116.48;93223;1208;87037;-63
2021/07/15 05:30:43;;;;;;;9.60;3.80;;;;;;;26.17;73.48;100113.62;93201;1205;75618;-64
2021/07/15 05:32:51;;;;;;;10.00;4.80;;;;;;;27.00;72.32;100107.31;93229;1203;81146;-63
2021/07/15 05:35:01;;;;;;;11.90;4.50;;;;;;;27.34;70.02;100114.14;93215;1205;66348;-60
2021/07/15 05:37:10;;;;;;;12.80;4.30;;;;;;;27.20;69.22;100118.84;93192;1205;69215;-60
2021/07/15 05:39:18;;;;;;;10.40;4.60;;;;;;;26.84;69.25;100131.69;93208;1206;85484;-59
2021/07/15 05:41:28;;;;;;;8.40;4.50;;;;;;;26.88;68.47;100130.80;93228;1205;74913;-59
2021/07/15 05:43:36;;;;;;;6.80;3.40;;;;;;;26.78;68.17;100121.84;93178;1205;81098;-60
2021/07/15 05:45:44;;;;;;;7.30;3.60;;;;;;;26.86;67.74;100123.92;93181;1210;65213;-59
2021/07/15 05:47:51;;;;;;;9.30;3.80;;;;;;;26.76;68.00;100119.32;93248;1205;69651;-59
2021/07/15 05:49:59;;;;;;;8.40;3.80;;;;;;;26.67;67.80;100109.24;93254;1203;86314;-59
2021/07/15 05:52:09;;;;;;;11.50;3.60;;;;;;;26.40;67.55;100103.59;93245;1204;74832;-59
2021/07/15 05:54:17;;;;;;;11.20;4.20;;;;;;;26.08;67.85;100104.30;93234;1206;80187;-58
2021/07/15 05:56:24;;;;;;;9.00;3.70;;;;;;;25.92;67.87;100098.16;93258;1204;67612;-59
2021/07/15 05:58:32;;;;;;;11.00;4.60;;;;;;;26.47;68.74;100095.70;93238;1213;68889;-59
2021/07/15 06:00:40;;;;;;;9.30;3.70;;;;;;;27.61;68.40;100087.58;93177;1210;87297;-59
2021/07/15 06:02:47;;;;;;;6.50;3.40;;;;;;;28.65;66.65;100085.50;93301;1198;75198;-59
2021/07/15 06:04:58;;;;;;;5.60;3.10;;;;;;;29.69;65.01;100066.23;93183;1205;80590;-58
2021/07/15 06:07:06;;;;;;;8.40;3.30;;;;;;;30.44;63.31;100067.02;93218;1206;66129;-59
2021/07/15 06:09:16;;;;;;;9.70;3.70;;;;;;;31.04;61.16;100061.34;93214;1206;68194;-63
2021/07/15 06:11:24;;;;;;;8.80;3.50;;;;;;;31.46;59.95;100037.98;93216;1205;86784;-63
2021/07/15 06:13:32;;;;;;;7.60;3.20;;;;;;;31.90;56.94;100034.63;93199;1204;74523;-59
2021/07/15 06:15:40;;;;;;;7.40;3.80;;;;;;;32.25;56.91;100026.80;93195;1210;81224;-59
2021/07/15 06:17:48;;;;;;;5.60;3.10;;;;;;;32.12;56.29;100041.88;93183;1210;68141;-59
2021/07/15 06:19:58;;;;;;;6.90;3.10;;;;;;;32.17;56.54;100032.49;93206;1206;69188;-63
2021/07/15 06:22:07;;;;;;;7.90;3.60;;;;;;;32.46;55.72;100029.59;93234;1204;87004;-63
2021/07/15 06:24:14;;;;;;;8.30;3.70;;;;;;;32.51;54.78;100023.77;93213;1203;75111;-63
2021/07/15 06:26:25;;;;;;;5.60;3.50;;;;;;;32.45;54.77;100025.97;93200;1206;79873;-63
2021/07/15 06:28:33;;;;;;;8.90;4.40;;;;;;;32.56;54.34;100024.41;93212;1210;65283;-62
2021/07/15 06:30:41;;;;;;;9.00;3.60;;;;;;;32.37;52.91;100020.45;93238;1205;68088;-64
2021/07/15 06:32:49;;;;;;;8.60;3.30;;;;;;;32.54;53.21;100021.14;93192;1208;87442;-63
2021/07/15 06:34:56;;;;;;;10.00;3.20;;;;;;;32.72;52.93;100012.58;93225;1206;75137;-61
2021/07/15 06:37:08;;;;;;;8.70;3.40;;;;;;;32.83;52.16;100020.16;93200;1205;81644;-59
2021/07/15 06:39:16;;;;;;;7.60;4.50;;;;;;;33.12;51.35;100014.42;93210;1205;66868;-62
2021/07/15 06:41:23;;;;;;;8.00;3.60;;;;;;;33.33;50.93;100019.91;93249;1213;68158;-63
2021/07/15 06:43:31;;;;;;;11.40;6.80;;;;;;;33.31;49.09;100015.82;93222;1203;86550;-59
2021/07/15 06:45:42;;;;;;;9.80;7.40;;;;;;;33.54;50.06;100011.39;93191;1206;74258;-59
2021/07/15 06:47:52;;;;;;;12.60;10.00;;;;;;;33.69;49.51;100016.30;93213;1205;80786;-58
2021/07/15 06:50:00;;;;;;;17.60;11.70;;;;;;;33.72;48.89;100018.39;93223;1213;65391;-62
2021/07/15 06:52:09;;;;;;;15.80;12.10;;;;;;;33.99;48.88;100025.22;93222;1203;70295;-63
2021/07/15 06:54:18;;;;;;;7.70;4.60;;;;;;;34.07;49.21;100021.45;93182;1209;86866;-58
2021/07/15 06:56:25;;;;;;;7.60;3.60;;;;;;;34.21;47.36;100008.72;93195;1205;75187;-58
2021/07/15 06:58:36;;;;;;;7.60;3.50;;;;;;;34.06;46.31;100001.04;93211;1205;81428;-57
2021/07/15 07:00:44;;;;;;;7.10;2.80;;;;;;;33.35;47.01;99995.16;93175;1205;67827;-57
2021/07/15 07:02:52;;;;;;;8.70;3.80;;;;;;;33.39;47.90;99992.48;93231;1210;69050;-57
2021/07/15 07:04:59;;;;;;;8.50;3.50;;;;;;;33.83;47.99;100003.55;93217;1206;86912;-57
2021/07/15 07:07:10;;;;;;;8.70;3.40;;;;;;;34.10;46.46;100007.58;93172;1206;73724;-58
2021/07/15 07:09:18;;;;;;;9.50;3.50;;;;;;;33.72;46.00;100021.20;93212;1206;81437;-67
2021/07/15 07:11:25;;;;;;;10.10;3.10;;;;;;;34.17;46.86;100019.00;93190;1210;66674;-67
2021/07/15 07:13:33;;;;;;;8.40;3.00;;;;;;;34.76;46.28;100024.73;93228;1204;69867;-58
2021/07/15 07:15:41;;;;;;;9.40;3.50;;;;;;;34.99;46.13;100024.95;93094;1213;86510;-57
2021/07/15 07:17:51;;;;;;;7.70;3.30;;;;;;;35.53;45.54;100025.95;93209;1210;74552;-57
2021/07/15 07:19:59;;;;;;;9.80;3.50;;;;;;;35.88;44.44;100033.59;93192;1205;80615;-57
2021/07/15 07:22:07;;;;;;;6.90;3.50;;;;;;;36.09;44.05;100039.75;93214;1210;67479;-58
2021/07/15 07:24:15;;;;;;;7.80;3.00;;;;;;;36.17;44.33;100047.16;93237;1213;69853;-59
2021/07/15 07:26:23;;;;;;;8.50;3.20;;;;;;;36.46;43.71;100057.81;93199;1206;86660;-59
2021/07/15 07:28:30;;;;;;;8.70;3.80;;;;;;;36.66;43.21;100059.47;93235;1207;74490;-63
2021/07/15 07:30:41;;;;;;;8.20;2.90;;;;;;;36.73;42.32;100069.25;93229;1204;83088;-63
2021/07/15 07:32:49;;;;;;;7.60;3.40;;;;;;;36.59;41.82;100070.57;93231;1206;65935;-63
2021/07/15 07:34:56;;;;;;;7.80;3.50;;;;;;;37.12;42.00;100068.00;93209;1207;69080;-64
2021/07/15 07:37:07;;;;;;;8.80;3.50;;;;;;;37.35;41.17;100060.37;93205;1206;85880;-61
2021/07/15 07:39:15;;;;;;;7.80;3.80;;;;;;;37.42;40.32;100046.41;93183;1206;74319;-62
2021/07/15 07:41:22;;;;;;;16.20;12.30;;;;;;;37.71;39.88;100044.87;93198;1206;80047;-63
2021/07/15 07:43:30;;;;;;;15.60;11.20;;;;;;;37.77;39.86;100037.72;93190;1206;66610;-60
2021/07/15 07:45:38;;;;;;;14.10;11.80;;;;;;;37.63;38.87;100041.13;93190;1205;69326;-58
2021/07/15 07:47:46;;;;;;;17.80;13.60;;;;;;;37.79;38.55;100038.14;93227;1205;87468;-58
2021/07/15 07:49:54;;;;;;;11.00;7.00;;;;;;;38.03;38.73;100031.24;93254;1206;74330;-58
2021/07/15 07:52:05;;;;;;;10.00;5.70;;;;;;;37.96;38.27;100039.63;93144;1209;80910;-58
2021/07/15 07:54:13;;;;;;;9.00;4.40;;;;;;;37.87;38.03;100031.44;93187;1205;67274;-64
2021/07/15 07:56:21;;;;;;;7.70;4.30;;;;;;;37.97;38.15;100036.41;93218;1211;70380;-63
2021/07/15 07:58:31;;;;;;;8.30;4.10;;;;;;;38.08;38.61;100028.08;93184;1205;87089;-60
2021/07/15 08:00:42;;;;;;;7.90;3.90;;;;;;;38.18;37.67;100033.08;93197;1213;75417;-63
2021/07/15 08:02:50;;;;;;;7.90;3.20;;;;;;;38.27;36.99;100042.05;93167;1206;80683;-63
2021/07/15 08:04:58;;;;;;;6.70;3.50;;;;;;;38.37;37.43;100035.77;93224;1206;67138;-58
2021/07/15 08:07:13;;;;;;;7.20;3.30;;;;;;;38.31;37.69;100042.91;93222;1211;69108;-58
2021/07/15 08:09:24;;;;;;;6.50;3.00;;;;;;;38.54;36.73;100037.97;93230;1205;87256;-58
2021/07/15 08:11:32;;;;;;;9.70;4.40;;;;;;;38.81;35.76;100044.38;93229;1206;73677;-58
2021/07/15 08:13:40;;;;;;;5.90;3.00;;;;;;;38.63;35.09;100044.14;93134;1210;81136;-63
2021/07/15 08:15:48;;;;;;;8.90;4.20;;;;;;;38.41;37.31;100052.73;93187;1206;65394;-63
2021/07/15 08:17:56;;;;;;;7.20;3.40;;;;;;;38.81;36.78;100055.67;93206;1205;69873;-63
2021/07/15 08:20:09;;;;;;;9.80;2.90;;;;;;;38.91;36.28;100078.38;93236;1213;86274;-59
2021/07/15 08:22:17;;;;;;;10.30;3.30;;;;;;;39.05;34.41;100086.20;93195;1213;75193;-58
2021/07/15 08:24:24;;;;;;;5.80;3.00;;;;;;;38.89;36.77;100103.39;93209;1210;80468;-63
2021/07/15 08:26:35;;;;;;;6.60;3.30;;;;;;;39.28;35.71;100115.11;93194;1206;66493;-69
2021/07/15 08:28:43;;;;;;;11.30;3.80;;;;;;;39.14;35.35;100119.80;93212;1206;69385;-63
2021/07/15 08:30:50;;;;;;;8.00;3.30;;;;;;;38.92;35.98;100133.70;93173;1206;87144;-64
2021/07/15 08:33:00;;;;;;;7.20;3.50;;;;;;;37.97;35.71;100162.54;93199;1203;75532;-64
2021/07/15 08:35:10;;;;;;;8.70;4.30;;;;;;;36.98;37.19;100169.13;93218;1205;81839;-59
2021/07/15 08:37:17;;;;;;;10.50;4.00;;;;;;;36.12;37.71;100174.03;93211;1213;66896;-60
2021/07/15 08:39:25;;;;;;;6.20;3.60;;;;;;;35.31;40.02;100183.93;93196;1206;70299;-65
2021/07/15 08:41:32;;;;;;;8.20;3.80;;;;;;;34.52;40.98;100183.95;93198;1206;86649;-65
2021/07/15 08:43:43;;;;;;;6.40;3.60;;;;;;;33.98;42.87;100191.82;93175;1206;74378;-65
2021/07/15 08:45:52;;;;;;;10.50;3.50;;;;;;;33.72;43.99;100197.75;93203;1210;80764;-65
2021/07/15 08:48:04;;;;;;;9.20;3.80;;;;;;;33.78;45.07;100204.77;93210;1206;65264;-65
2021/07/15 08:50:18;;;;;;;7.30;3.80;;;;;;;34.41;45.37;100206.07;93237;1206;70020;-60
2021/07/15 08:52:29;;;;;;;8.10;3.30;;;;;;;35.12;44.83;100192.22;93206;1206;86978;-59
2021/07/15 08:54:50;;;;;;;10.70;3.60;;;;;;;35.62;45.03;100202.05;93196;1208;74098;-59
2021/07/15 08:57:01;;;;;;;8.40;3.20;;;;;;;36.22;44.56;100204.41;93202;1210;81024;-59
2021/07/15 08:59:12;;;;;;;8.80;3.50;;;;;;;36.75;43.18;100207.66;93150;1210;66027;-60
2021/07/15 09:01:20;;;;;;;7.20;3.40;;;;;;;37.07;42.15;100224.08;93222;1210;68014;-60
2021/07/15 09:03:33;;;;;;;7.80;3.50;;;;;;;37.12;42.38;100222.95;93183;1206;86357;-60
2021/07/15 09:05:42;;;;;;;8.80;3.20;;;;;;;37.33;41.86;100226.22;93176;1206;74594;-60
2021/07/15 09:07:52;;;;;;;7.00;3.40;;;;;;;37.61;40.75;100228.77;93190;1205;81290;-61
2021/07/15 09:10:00;;;;;;;6.70;2.90;;;;;;;37.57;40.77;100233.55;93211;1205;66097;-59
2021/07/15 09:12:09;;;;;;;7.20;3.40;;;;;;;37.53;40.60;100227.83;93230;1206;68461;-59
2021/07/15 09:14:21;;;;;;;6.10;3.10;;;;;;;37.67;40.71;100235.73;93233;1205;86292;-60
2021/07/15 09:16:32;;;;;;;7.00;3.10;;;;;;;37.59;41.01;100239.61;93215;1205;73621;-60
2021/07/15 09:19:01;;;;;;;8.80;4.10;;;;;;;37.37;40.95;100235.55;93178;1206;81664;-60
2021/07/15 09:21:26;;;;;;;9.00;3.50;;;;;;;36.99;40.11;100224.30;93236;1206;66761;-59
2021/07/15 09:23:38;;;;;;;8.30;3.60;;;;;;;36.62;40.75;100210.59;93213;1205;69653;-65
2021/07/15 09:25:58;;;;;;;;;;;;;;;36.45;41.51;100216.59;93273;1203;87386;-65
2021/07/15 09:28:07;;;;;;;8.00;4.00;;;;;;;36.23;42.37;100206.05;93195;1205;74757;-66
2021/07/15 09:30:20;;;;;;;9.70;3.60;;;;;;;36.07;42.49;100208.87;93196;1211;81853;-60
2021/07/15 09:32:28;;;;;;;8.20;3.50;;;;;;;35.84;43.48;100207.05;93202;1206;64901;-60
2021/07/15 09:34:40;;;;;;;9.30;3.60;;;;;;;35.73;43.81;100209.58;93244;1213;70635;-64
2021/07/15 09:36:47;;;;;;;;;;;;;;;35.79;44.06;100210.13;93192;1205;86337;-65
2021/07/15 09:39:01;;;;;;;10.40;3.60;;;;;;;35.78;43.57;100205.67;93252;1206;74761;-60
2021/07/15 09:41:09;;;;;;;9.00;4.10;;;;;;;35.61;43.42;100203.21;93080;1208;80887;-59
2021/07/15 09:43:23;;;;;;;8.10;3.70;;;;;;;35.41;43.65;100208.69;93223;1206;65126;-59
2021/07/15 09:45:33;;;;;;;8.90;4.40;;;;;;;35.26;43.38;100209.48;93240;1211;69492;-61
2021/07/15 09:47:44;;;;;;;8.80;3.80;;;;;;;35.19;43.72;100223.31;93200;1206;85779;-59
2021/07/15 09:49:51;;;;;;;7.90;3.70;;;;;;;35.14;44.76;100222.75;93226;1210;74775;-64
2021/07/15 09:51:59;;;;;;;7.40;3.90;;;;;;;35.00;44.13;100237.17;93207;1210;81444;-64
2021/07/15 09:54:11;;;;;;;10.50;4.50;;;;;;;34.87;43.15;100236.41;93212;1205;65835;-64
2021/07/15 09:56:20;;;;;;;8.50;3.60;;;;;;;34.51;43.17;100244.86;93206;1208;69517;-64
2021/07/15 09:58:36;;;;;;;8.80;4.20;;;;;;;34.28;43.93;100254.95;93182;1206;86248;-61
2021/07/15 10:00:46;;;;;;;6.00;4.20;;;;;;;34.34;44.56;100265.56;93223;1210;75213;-62
2021/07/15 10:02:59;;;;;;;7.30;3.80;;;;;;;34.39;45.03;100272.95;93195;1206;83045;-62
2021/07/15 10:05:15;;;;;;;9.00;4.30;;;;;;;34.43;45.02;100270.23;93200;1206;66685;-61
2021/07/15 10:07:28;;;;;;;8.70;4.70;;;;;;;34.44;44.44;100275.52;93184;1206;69355;-61